Windyville, Missouri
Current Conditions -  °F | °C
As of 4:15 AM on Friday 24 Oct 2014 (Local Time) from KH21 Reporting Station
Overcast Overcast  
Wind Chill: 57°   Ceiling: 600
Heat Index: 57°   Visibility: 7mi
Dew Point: 55°   Wind: 7mph
Humidity: 94%   Direction: 260°W
Pressure: 30.12"   Gusts: NA
Location:  37.71°N, 92.93°W
Report Text: KH21 240915Z AUTO 26006KT 7SM OVC006 14/13 A3012 RMK AO2
Loading
Personal Weather Stations






























Interactive Weather Map
Tropical Storm Tracking
New forecast layout! Learn more

10-Day Weather Forecast

Advertisements
Track Severe Weather on mobile